createdAt,value
2018-07-21T00:00:19.157Z,1007.74
2018-07-21T00:01:19.117Z,1007.70
2018-07-21T00:02:19.121Z,1007.71
2018-07-21T00:03:19.038Z,1007.69
2018-07-21T00:04:19.000Z,1007.66
2018-07-21T00:05:18.959Z,1007.62
2018-07-21T00:06:18.920Z,1007.63
2018-07-21T00:07:18.881Z,1007.61
2018-07-21T00:08:18.843Z,1007.63
2018-07-21T00:09:18.802Z,1007.61
2018-07-21T00:10:18.761Z,1007.65
2018-07-21T00:11:18.720Z,1007.62
2018-07-21T00:12:18.679Z,1007.63
2018-07-21T00:13:18.641Z,1007.64
2018-07-21T00:14:18.607Z,1007.68
2018-07-21T00:15:18.561Z,1007.68
2018-07-21T00:16:18.528Z,1007.68
2018-07-21T00:17:18.481Z,1007.68
2018-07-21T00:18:18.443Z,1007.69
2018-07-21T00:19:18.401Z,1007.68
2018-07-21T00:20:18.362Z,1007.71
2018-07-21T00:21:18.333Z,1007.71
2018-07-21T00:22:18.284Z,1007.72
2018-07-21T00:23:18.251Z,1007.71
2018-07-21T00:24:18.203Z,1007.72
2018-07-21T00:25:18.163Z,1007.75
2018-07-21T00:26:18.133Z,1007.71
2018-07-21T00:27:18.084Z,1007.68
2018-07-21T00:28:18.045Z,1007.74
2018-07-21T00:29:18.004Z,1007.66
2018-07-21T00:30:17.966Z,1007.69
2018-07-21T00:31:17.927Z,1007.65
2018-07-21T00:32:17.886Z,1007.58
2018-07-21T00:33:17.846Z,1007.56
2018-07-21T00:34:17.805Z,1007.55
2018-07-21T00:35:17.763Z,1007.50
2018-07-21T00:36:17.726Z,1007.48
2018-07-21T00:37:17.688Z,1007.45
2018-07-21T00:38:17.648Z,1007.47
2018-07-21T00:39:17.606Z,1007.40
2018-07-21T00:40:17.566Z,1007.36
2018-07-21T00:41:17.527Z,1007.38
2018-07-21T00:42:17.487Z,1007.37
2018-07-21T00:43:17.447Z,1007.36
2018-07-21T00:44:17.408Z,1007.39
2018-07-21T00:45:17.368Z,1007.41
2018-07-21T00:46:17.334Z,1007.37
2018-07-21T00:47:17.289Z,1007.39
2018-07-21T00:48:17.249Z,1007.37
2018-07-21T00:49:17.213Z,1007.34
2018-07-21T00:50:17.169Z,1007.36
2018-07-21T00:51:17.128Z,1007.36
2018-07-21T00:52:17.088Z,1007.38
2018-07-21T00:53:17.054Z,1007.37
2018-07-21T00:54:17.009Z,1007.39
2018-07-21T00:55:16.969Z,1007.40
2018-07-21T00:56:16.931Z,1007.43
2018-07-21T00:57:16.894Z,1007.37
2018-07-21T00:58:16.851Z,1007.37
2018-07-21T00:59:16.809Z,1007.36
2018-07-21T01:00:16.775Z,1007.34
2018-07-21T01:01:16.729Z,1007.31
2018-07-21T01:02:16.689Z,1007.30
2018-07-21T01:03:16.650Z,1007.25
2018-07-21T01:04:16.615Z,1007.22
2018-07-21T01:05:16.569Z,1007.21
2018-07-21T01:06:16.531Z,1007.19
2018-07-21T01:07:16.489Z,1007.21
2018-07-21T01:08:16.451Z,1007.19
2018-07-21T01:09:16.414Z,1007.19
2018-07-21T01:10:16.372Z,1007.19
2018-07-21T01:11:16.334Z,1007.21
2018-07-21T01:12:16.290Z,1007.22
2018-07-21T01:13:16.250Z,1007.23
2018-07-21T01:14:16.212Z,1007.23
2018-07-21T01:15:16.169Z,1007.21
2018-07-21T01:16:16.130Z,1007.22
2018-07-21T01:17:16.091Z,1007.23
2018-07-21T01:18:16.051Z,1007.19
2018-07-21T01:19:16.012Z,1007.20
2018-07-21T01:20:15.972Z,1007.21
2018-07-21T01:21:15.930Z,1007.19
2018-07-21T01:22:15.891Z,1007.18
2018-07-21T01:23:15.851Z,1007.18
2018-07-21T01:24:15.810Z,1007.16
2018-07-21T01:25:15.770Z,1007.18
2018-07-21T01:26:15.731Z,1007.16
2018-07-21T01:27:15.689Z,1007.15
2018-07-21T01:28:15.652Z,1007.14
2018-07-21T01:29:15.612Z,1007.18
2018-07-21T01:30:15.570Z,1007.16
2018-07-21T01:31:15.529Z,1007.17
2018-07-21T01:32:15.489Z,1007.12
2018-07-21T01:33:15.449Z,1007.11
2018-07-21T01:34:15.409Z,1007.13
2018-07-21T01:35:15.369Z,1007.14
2018-07-21T01:36:15.327Z,1007.13
2018-07-21T01:37:15.288Z,1007.12
2018-07-21T01:38:15.248Z,1007.12
2018-07-21T01:39:15.209Z,1007.13
2018-07-21T01:40:15.326Z,1007.11
2018-07-21T01:41:15.749Z,1007.07
2018-07-21T01:42:15.665Z,1007.12
2018-07-21T01:43:15.048Z,1007.13
2018-07-21T01:44:15.008Z,1007.10
2018-07-21T01:45:14.969Z,1007.09
2018-07-21T01:46:14.929Z,1007.11
2018-07-21T01:47:14.885Z,1007.10
2018-07-21T01:48:14.848Z,1007.07
2018-07-21T01:49:14.807Z,1007.11
2018-07-21T01:50:14.766Z,1007.07
2018-07-21T01:51:14.725Z,1007.09
2018-07-21T01:52:14.684Z,1007.03
2018-07-21T01:53:14.644Z,1007.03
2018-07-21T01:54:14.607Z,1007.04
2018-07-21T01:55:14.565Z,1007.08
2018-07-21T01:56:14.523Z,1007.04
2018-07-21T01:57:14.486Z,1007.05
2018-07-21T01:58:14.445Z,1007.05
2018-07-21T01:59:14.405Z,1007.06
2018-07-21T02:00:14.361Z,1007.07
2018-07-21T02:01:14.324Z,1007.06
2018-07-21T02:02:14.280Z,1007.09
2018-07-21T02:03:14.241Z,1007.10
2018-07-21T02:04:14.200Z,1007.08
2018-07-21T02:05:14.160Z,1007.10
2018-07-21T02:06:14.120Z,1007.03
2018-07-21T02:07:14.082Z,1007.09
2018-07-21T02:08:14.043Z,1007.11
2018-07-21T02:09:14.000Z,1007.06
2018-07-21T02:10:13.963Z,1007.07
2018-07-21T02:11:13.920Z,1007.09
2018-07-21T02:12:13.879Z,1007.05
2018-07-21T02:13:13.840Z,1007.05
2018-07-21T02:14:13.797Z,1007.07
2018-07-21T02:15:13.756Z,1007.05
2018-07-21T02:16:13.717Z,1007.05
2018-07-21T02:17:13.677Z,1007.08
2018-07-21T02:18:13.638Z,1007.07
2018-07-21T02:19:13.641Z,1007.05
2018-07-21T02:20:13.554Z,1007.07
2018-07-21T02:21:13.547Z,1007.07
2018-07-21T02:22:13.479Z,1007.06
2018-07-21T02:23:13.504Z,1007.05
2018-07-21T02:24:13.416Z,1007.08
2018-07-21T02:25:13.354Z,1007.03
2018-07-21T02:26:13.314Z,1007.05
2018-07-21T02:27:13.273Z,1007.04
2018-07-21T02:28:13.234Z,1007.05
2018-07-21T02:29:13.191Z,1007.04
2018-07-21T02:30:13.155Z,1007.08
2018-07-21T02:31:13.109Z,1007.08
2018-07-21T02:32:13.077Z,1007.04
2018-07-21T02:33:13.034Z,1007.03
2018-07-21T02:34:12.995Z,1007.01
2018-07-21T02:35:12.949Z,1007.02
2018-07-21T02:36:12.911Z,1007.00
2018-07-21T02:37:12.870Z,1007.01
2018-07-21T02:38:12.838Z,1006.99
2018-07-21T02:39:12.788Z,1007.01
2018-07-21T02:40:12.747Z,1007.03
2018-07-21T02:41:12.707Z,1007.06
2018-07-21T02:42:12.670Z,1007.00
2018-07-21T02:43:12.631Z,1007.00
2018-07-21T02:44:12.588Z,1007.07
2018-07-21T02:45:12.547Z,1007.05
2018-07-21T02:46:12.511Z,1007.08
2018-07-21T02:47:12.464Z,1007.08
2018-07-21T02:48:12.426Z,1007.11
2018-07-21T02:49:12.386Z,1007.12
2018-07-21T02:50:12.346Z,1007.09
2018-07-21T02:51:12.303Z,1007.09
2018-07-21T02:52:12.266Z,1007.07
2018-07-21T02:53:12.223Z,1007.08
2018-07-21T02:54:12.183Z,1007.05
2018-07-21T02:55:12.142Z,1007.01
2018-07-21T02:56:12.104Z,1007.01
2018-07-21T02:57:12.061Z,1007.01
2018-07-21T02:58:12.024Z,1007.04
2018-07-21T02:59:11.979Z,1007.01
2018-07-21T03:00:11.942Z,1007.01
2018-07-21T03:01:11.899Z,1007.04
2018-07-21T03:02:11.859Z,1007.03
2018-07-21T03:03:11.821Z,1007.00
2018-07-21T03:04:11.786Z,1007.03
2018-07-21T03:05:11.744Z,1007.04
2018-07-21T03:06:11.699Z,1007.00
2018-07-21T03:07:11.656Z,1006.97
2018-07-21T03:08:11.624Z,1007.04
2018-07-21T03:09:11.578Z,1007.00
2018-07-21T03:10:11.538Z,1006.96
2018-07-21T03:11:11.503Z,1006.98
2018-07-21T03:12:11.460Z,1006.94
2018-07-21T03:13:11.415Z,1006.92
2018-07-21T03:14:11.375Z,1006.97
2018-07-21T03:15:11.334Z,1006.93
2018-07-21T03:16:11.295Z,1006.93
2018-07-21T03:17:11.253Z,1006.92
2018-07-21T03:18:11.214Z,1006.94
2018-07-21T03:19:11.173Z,1006.96
2018-07-21T03:20:11.135Z,1006.94
2018-07-21T03:21:11.095Z,1006.96
2018-07-21T03:22:11.051Z,1006.96
2018-07-21T03:23:11.072Z,1006.97
2018-07-21T03:24:10.972Z,1007.00
2018-07-21T03:25:10.930Z,1006.99
2018-07-21T03:26:10.890Z,1006.97
2018-07-21T03:27:10.853Z,1006.97
2018-07-21T03:28:10.815Z,1006.94
2018-07-21T03:29:10.768Z,1006.96
2018-07-21T03:30:10.730Z,1006.97
2018-07-21T03:31:10.687Z,1006.97
2018-07-21T03:32:10.649Z,1006.95
2018-07-21T03:33:10.606Z,1006.98
2018-07-21T03:34:10.567Z,1006.94
2018-07-21T03:35:10.531Z,1006.94
2018-07-21T03:36:10.490Z,1006.93
2018-07-21T03:37:10.443Z,1007.01
2018-07-21T03:38:10.406Z,1006.96
2018-07-21T03:39:10.366Z,1007.00
2018-07-21T03:40:10.326Z,1007.02
2018-07-21T03:41:10.285Z,1007.04
2018-07-21T03:42:10.241Z,1007.07
2018-07-21T03:43:10.202Z,1007.08
2018-07-21T03:44:10.161Z,1007.08
2018-07-21T03:45:10.126Z,1007.11
2018-07-21T03:46:10.082Z,1007.10
2018-07-21T03:47:10.057Z,1007.09
2018-07-21T03:48:10.010Z,1007.09
2018-07-21T03:49:09.971Z,1007.08
2018-07-21T03:50:09.934Z,1007.09
2018-07-21T03:51:09.875Z,1007.09
2018-07-21T03:52:09.838Z,1007.04
2018-07-21T03:53:09.800Z,1007.04
2018-07-21T03:54:09.754Z,1007.10
2018-07-21T03:55:09.729Z,1007.09
2018-07-21T03:56:09.672Z,1007.11
2018-07-21T03:57:09.631Z,1007.16
2018-07-21T03:58:09.591Z,1007.11
2018-07-21T03:59:09.550Z,1007.13
2018-07-21T04:00:09.512Z,1007.11
2018-07-21T04:01:09.472Z,1007.15
2018-07-21T04:02:09.429Z,1007.12
2018-07-21T04:03:09.394Z,1007.10
2018-07-21T04:04:09.346Z,1007.10
2018-07-21T04:05:09.306Z,1007.07
2018-07-21T04:06:09.265Z,1007.05
2018-07-21T04:07:09.232Z,1007.09
2018-07-21T04:08:09.183Z,1007.09
2018-07-21T04:09:09.147Z,1007.08
2018-07-21T04:10:09.103Z,1007.07
2018-07-21T04:11:09.061Z,1007.08
2018-07-21T04:12:09.022Z,1007.05
2018-07-21T04:13:08.979Z,1007.05
2018-07-21T04:14:08.938Z,1007.04
2018-07-21T04:15:08.899Z,1007.02
2018-07-21T04:16:08.856Z,1007.05
2018-07-21T04:17:08.816Z,1007.05
2018-07-21T04:18:08.776Z,1007.09
2018-07-21T04:19:08.733Z,1007.09
2018-07-21T04:20:08.694Z,1007.10
2018-07-21T04:21:08.651Z,1007.07
2018-07-21T04:22:08.614Z,1007.09
2018-07-21T04:23:08.570Z,1007.12
2018-07-21T04:24:08.547Z,1007.13
2018-07-21T04:25:08.487Z,1007.09
2018-07-21T04:26:08.449Z,1007.09
2018-07-21T04:27:08.406Z,1007.13
2018-07-21T04:28:08.364Z,1007.14
2018-07-21T04:29:08.326Z,1007.15
2018-07-21T04:30:08.284Z,1007.17
2018-07-21T04:31:08.243Z,1007.17
2018-07-21T04:32:08.201Z,1007.17
2018-07-21T04:33:08.160Z,1007.18
2018-07-21T04:34:08.124Z,1007.18
2018-07-21T04:35:08.085Z,1007.17
2018-07-21T04:36:08.038Z,1007.19
2018-07-21T04:37:07.997Z,1007.19
2018-07-21T04:38:07.955Z,1007.22
2018-07-21T04:39:07.912Z,1007.21
2018-07-21T04:40:07.875Z,1007.22
2018-07-21T04:41:07.833Z,1007.21
2018-07-21T04:42:07.790Z,1007.24
2018-07-21T04:43:07.750Z,1007.29
2018-07-21T04:44:07.708Z,1007.33
2018-07-21T04:45:07.668Z,1007.33
2018-07-21T04:46:07.628Z,1007.35
2018-07-21T04:47:07.585Z,1007.36
2018-07-21T04:48:07.546Z,1007.35
2018-07-21T04:49:07.507Z,1007.37
2018-07-21T04:50:07.465Z,1007.37
2018-07-21T04:51:07.423Z,1007.42
2018-07-21T04:52:07.380Z,1007.41
2018-07-21T04:53:07.342Z,1007.42
2018-07-21T04:54:07.303Z,1007.40
2018-07-21T04:55:07.254Z,1007.41
2018-07-21T04:56:07.214Z,1007.39
2018-07-21T04:57:07.173Z,1007.43
2018-07-21T04:58:07.134Z,1007.36
2018-07-21T04:59:07.093Z,1007.42
2018-07-21T05:00:07.051Z,1007.43
2018-07-21T05:01:07.033Z,1007.43
2018-07-21T05:02:06.968Z,1007.42
2018-07-21T05:03:06.929Z,1007.42
2018-07-21T05:04:06.888Z,1007.43
2018-07-21T05:05:06.848Z,1007.41
2018-07-21T05:06:06.809Z,1007.44
2018-07-21T05:07:06.766Z,1007.41
2018-07-21T05:08:06.723Z,1007.44
2018-07-21T05:09:06.685Z,1007.34
2018-07-21T05:10:06.641Z,1007.33
2018-07-21T05:11:06.599Z,1007.37
2018-07-21T05:12:06.558Z,1007.38
2018-07-21T05:13:06.517Z,1007.39
2018-07-21T05:14:06.477Z,1007.38
2018-07-21T05:15:06.437Z,1007.36
2018-07-21T05:16:06.404Z,1007.40
2018-07-21T05:17:06.355Z,1007.40
2018-07-21T05:18:06.321Z,1007.38
2018-07-21T05:19:06.292Z,1007.42
2018-07-21T05:20:06.268Z,1007.41
2018-07-21T05:21:06.196Z,1007.42
2018-07-21T05:22:06.157Z,1007.45
2018-07-21T05:23:06.111Z,1007.41
2018-07-21T05:24:06.078Z,1007.41
2018-07-21T05:25:06.027Z,1007.43
2018-07-21T05:26:05.989Z,1007.40
2018-07-21T05:27:05.946Z,1007.40
2018-07-21T05:28:05.906Z,1007.38
2018-07-21T05:29:05.869Z,1007.35
2018-07-21T05:30:05.831Z,1007.34
2018-07-21T05:31:05.786Z,1007.36
2018-07-21T05:32:05.744Z,1007.42
2018-07-21T05:33:05.703Z,1007.40
2018-07-21T05:34:05.709Z,1007.38
2018-07-21T05:35:05.621Z,1007.37
2018-07-21T05:36:05.581Z,1007.37
2018-07-21T05:37:05.543Z,1007.40
2018-07-21T05:38:05.503Z,1007.37
2018-07-21T05:39:05.476Z,1007.42
2018-07-21T05:40:05.425Z,1007.45
2018-07-21T05:41:05.381Z,1007.41
2018-07-21T05:42:05.341Z,1007.46
2018-07-21T05:43:05.301Z,1007.45
2018-07-21T05:44:05.261Z,1007.52
2018-07-21T05:45:05.232Z,1007.49
2018-07-21T05:46:05.179Z,1007.52
2018-07-21T05:47:05.141Z,1007.50
2018-07-21T05:48:05.103Z,1007.51
2018-07-21T05:49:05.060Z,1007.46
2018-07-21T05:50:05.020Z,1007.50
2018-07-21T05:51:04.978Z,1007.49
2018-07-21T05:52:04.940Z,1007.47
2018-07-21T05:53:04.923Z,1007.50
2018-07-21T05:54:04.863Z,1007.49
2018-07-21T05:55:04.832Z,1007.51
2018-07-21T05:56:04.778Z,1007.53
2018-07-21T05:57:04.741Z,1007.46
2018-07-21T05:58:04.700Z,1007.55
2018-07-21T05:59:04.657Z,1007.56
2018-07-21T06:00:04.621Z,1007.56
2018-07-21T06:01:04.580Z,1007.57
2018-07-21T06:02:04.541Z,1007.57
2018-07-21T06:03:04.564Z,1007.48
2018-07-21T06:04:04.459Z,1007.58
2018-07-21T06:05:04.423Z,1007.56
2018-07-21T06:06:04.385Z,1007.55
2018-07-21T06:07:04.340Z,1007.55
2018-07-21T06:08:04.299Z,1007.58
2018-07-21T06:09:04.259Z,1007.55
2018-07-21T06:10:04.219Z,1007.52
2018-07-21T06:11:04.189Z,1007.56
2018-07-21T06:12:04.141Z,1007.57
2018-07-21T06:13:04.100Z,1007.56
2018-07-21T06:14:04.061Z,1007.55
2018-07-21T06:15:04.026Z,1007.60
2018-07-21T06:16:03.983Z,1007.64
2018-07-21T06:17:03.966Z,1007.65
2018-07-21T06:18:03.906Z,1007.64
2018-07-21T06:19:03.861Z,1007.68
2018-07-21T06:20:03.822Z,1007.69
2018-07-21T06:21:03.784Z,1007.68
2018-07-21T06:22:03.742Z,1007.71
2018-07-21T06:23:03.703Z,1007.70
2018-07-21T06:24:03.664Z,1007.71
2018-07-21T06:25:03.653Z,1007.80
2018-07-21T06:26:03.585Z,1007.79
2018-07-21T06:27:03.550Z,1007.85
2018-07-21T06:28:03.523Z,1007.83
2018-07-21T06:29:03.468Z,1007.87
2018-07-21T06:30:03.429Z,1007.85
2018-07-21T06:31:03.388Z,1007.88
2018-07-21T06:32:03.349Z,1007.90
2018-07-21T06:33:03.313Z,1007.88
2018-07-21T06:34:03.271Z,1007.90
2018-07-21T06:35:03.230Z,1007.93
2018-07-21T06:36:03.191Z,1007.92
2018-07-21T06:37:03.151Z,1007.92
2018-07-21T06:38:03.114Z,1007.93
2018-07-21T06:39:03.071Z,1007.90
2018-07-21T06:40:03.039Z,1007.96
2018-07-21T06:41:02.995Z,1007.98
2018-07-21T06:42:02.955Z,1007.91
2018-07-21T06:43:02.927Z,1007.94
2018-07-21T06:44:02.876Z,1007.94
2018-07-21T06:45:02.837Z,1007.90
2018-07-21T06:46:02.799Z,1007.91
2018-07-21T06:47:02.757Z,1007.90
2018-07-21T06:48:02.719Z,1007.93
2018-07-21T06:49:02.679Z,1007.92
2018-07-21T06:50:02.643Z,1007.92
2018-07-21T06:51:02.601Z,1007.95
2018-07-21T06:52:02.562Z,1007.97
2018-07-21T06:53:02.526Z,1007.97
2018-07-21T06:54:02.487Z,1008.01
2018-07-21T06:55:02.444Z,1007.97
2018-07-21T06:56:02.407Z,1007.99
2018-07-21T06:57:02.373Z,1007.99
2018-07-21T06:58:02.327Z,1008.02
2018-07-21T06:59:02.339Z,1008.07
2018-07-21T07:00:02.248Z,1008.02
2018-07-21T07:01:02.256Z,1008.03
2018-07-21T07:02:02.173Z,1008.00
2018-07-21T07:03:02.132Z,1008.04
2018-07-21T07:04:02.093Z,1007.99
2018-07-21T07:05:02.054Z,1008.03
2018-07-21T07:06:02.017Z,1007.97
2018-07-21T07:07:01.978Z,1007.98
2018-07-21T07:08:01.938Z,1008.03
2018-07-21T07:09:01.900Z,1008.01
2018-07-21T07:10:01.866Z,1008.05
2018-07-21T07:11:01.818Z,1008.01
2018-07-21T07:12:01.784Z,1008.00
2018-07-21T07:13:01.746Z,1008.04
2018-07-21T07:14:01.704Z,1008.02
2018-07-21T07:15:01.667Z,1008.01
2018-07-21T07:16:01.627Z,1008.05
2018-07-21T07:17:01.589Z,1008.04
2018-07-21T07:18:01.555Z,1008.04
2018-07-21T07:19:01.508Z,1008.04
2018-07-21T07:20:01.473Z,1008.06
2018-07-21T07:21:01.436Z,1008.05
2018-07-21T07:22:01.395Z,1008.05
2018-07-21T07:23:01.358Z,1008.03
2018-07-21T07:24:01.317Z,1008.06
2018-07-21T07:25:01.279Z,1008.06
2018-07-21T07:26:01.237Z,1008.02
2018-07-21T07:27:01.200Z,1008.03
2018-07-21T07:28:01.159Z,1008.05
2018-07-21T07:29:01.124Z,1008.10
2018-07-21T07:30:01.085Z,1008.09
2018-07-21T07:31:01.042Z,1008.08
2018-07-21T07:32:01.009Z,1008.12
2018-07-21T07:33:00.966Z,1008.13
2018-07-21T07:34:00.944Z,1008.14
2018-07-21T07:35:00.891Z,1008.17
2018-07-21T07:36:00.851Z,1008.16
2018-07-21T07:37:00.817Z,1008.17
2018-07-21T07:38:00.784Z,1008.16
2018-07-21T07:39:00.737Z,1008.17
2018-07-21T07:40:00.698Z,1008.17
2018-07-21T07:41:00.669Z,1008.19
2018-07-21T07:42:00.630Z,1008.16
2018-07-21T07:43:00.578Z,1008.13
2018-07-21T07:44:00.540Z,1008.12
2018-07-21T07:45:00.503Z,1008.11
2018-07-21T07:46:00.465Z,1008.12
2018-07-21T07:47:00.425Z,1008.14
2018-07-21T07:48:00.387Z,1008.10
2018-07-21T07:49:00.351Z,1008.12
2018-07-21T07:50:00.310Z,1008.13
2018-07-21T07:51:00.278Z,1008.11
2018-07-21T07:52:00.234Z,1008.14
2018-07-21T07:53:00.194Z,1008.13
2018-07-21T07:54:00.178Z,1008.10
2018-07-21T07:55:00.140Z,1008.16
2018-07-21T07:56:00.079Z,1008.17
2018-07-21T07:57:00.041Z,1008.17
2018-07-21T07:58:00.002Z,1008.14
2018-07-21T07:58:59.963Z,1008.16
2018-07-21T07:59:59.925Z,1008.17
2018-07-21T08:00:59.888Z,1008.08
2018-07-21T08:01:59.851Z,1008.16
2018-07-21T08:02:59.812Z,1008.17
2018-07-21T08:03:59.774Z,1008.16
2018-07-21T08:04:59.735Z,1008.19
2018-07-21T08:05:59.698Z,1008.14
2018-07-21T08:06:59.660Z,1008.10
2018-07-21T08:07:59.624Z,1008.09
2018-07-21T08:08:59.582Z,1008.14
2018-07-21T08:09:59.548Z,1008.11
2018-07-21T08:10:59.506Z,1008.12
2018-07-21T08:11:59.467Z,1008.12
2018-07-21T08:12:59.435Z,1008.09
2018-07-21T08:13:59.391Z,1008.10
2018-07-21T08:14:59.353Z,1008.10
2018-07-21T08:15:59.315Z,1008.07
2018-07-21T08:16:59.278Z,1008.10
2018-07-21T08:17:59.242Z,1008.09
2018-07-21T08:18:59.206Z,1008.05
2018-07-21T08:19:59.163Z,1008.07
2018-07-21T08:20:59.127Z,1008.04
2018-07-21T08:21:59.088Z,1008.06
2018-07-21T08:22:59.051Z,1008.05
2018-07-21T08:23:59.012Z,1008.02
2018-07-21T08:24:58.976Z,1008.00
2018-07-21T08:25:58.937Z,1007.93
2018-07-21T08:26:58.898Z,1008.04
2018-07-21T08:27:58.862Z,1008.00
2018-07-21T08:28:58.828Z,1008.02
2018-07-21T08:29:58.788Z,1008.01
2018-07-21T08:30:58.747Z,1008.02
2018-07-21T08:31:58.711Z,1008.01
2018-07-21T08:32:58.672Z,1008.00
2018-07-21T08:33:58.640Z,1008.04
2018-07-21T08:34:58.595Z,1008.05
2018-07-21T08:35:58.561Z,1008.01
2018-07-21T08:36:58.523Z,1008.00
2018-07-21T08:37:58.484Z,1008.01
2018-07-21T08:38:58.446Z,1008.00
2018-07-21T08:39:58.411Z,1008.00
2018-07-21T08:40:58.372Z,1007.97
2018-07-21T08:41:58.335Z,1007.92
2018-07-21T08:42:58.299Z,1007.91
2018-07-21T08:43:58.265Z,1007.91
2018-07-21T08:44:58.222Z,1007.87
2018-07-21T08:45:58.196Z,1007.88
2018-07-21T08:46:58.149Z,1007.90
2018-07-21T08:47:58.112Z,1007.90
2018-07-21T08:48:58.075Z,1007.87
2018-07-21T08:49:58.037Z,1007.89
2018-07-21T08:50:58.002Z,1007.88
2018-07-21T08:51:57.965Z,1007.94
2018-07-21T08:52:57.925Z,1007.92
2018-07-21T08:53:57.886Z,1007.90
2018-07-21T08:54:57.848Z,1007.90
2018-07-21T08:55:57.864Z,1007.87
2018-07-21T08:56:57.774Z,1007.86
2018-07-21T08:57:57.735Z,1007.84
2018-07-21T08:58:57.703Z,1007.82
2018-07-21T08:59:57.661Z,1007.86
2018-07-21T09:00:57.623Z,1007.85
2018-07-21T09:01:57.607Z,1007.88
2018-07-21T09:02:57.552Z,1007.86
2018-07-21T09:03:57.513Z,1007.88
2018-07-21T09:04:57.478Z,1007.91
2018-07-21T09:05:57.442Z,1007.89
2018-07-21T09:06:57.402Z,1007.86
2018-07-21T09:07:57.367Z,1007.87
2018-07-21T09:08:57.332Z,1007.90
2018-07-21T09:09:57.304Z,1007.85
2018-07-21T09:10:57.255Z,1007.84
2018-07-21T09:11:57.218Z,1007.83
2018-07-21T09:12:57.185Z,1007.84
2018-07-21T09:13:57.151Z,1007.85
2018-07-21T09:14:57.115Z,1007.84
2018-07-21T09:15:57.071Z,1007.84
2018-07-21T09:16:57.046Z,1007.86
2018-07-21T09:17:56.995Z,1007.87
2018-07-21T09:18:56.960Z,1007.86
2018-07-21T09:19:56.921Z,1007.84
2018-07-21T09:20:56.887Z,1007.85
2018-07-21T09:21:56.851Z,1007.83
2018-07-21T09:22:56.817Z,1007.84
2018-07-21T09:23:56.775Z,1007.81
2018-07-21T09:24:56.736Z,1007.81
2018-07-21T09:25:56.698Z,1007.79
2018-07-21T09:26:56.661Z,1007.79
2018-07-21T09:27:56.623Z,1007.73
2018-07-21T09:28:56.586Z,1007.77
2018-07-21T09:29:56.549Z,1007.81
2018-07-21T09:30:56.512Z,1007.81
2018-07-21T09:31:56.473Z,1007.79
2018-07-21T09:32:56.434Z,1007.78
2018-07-21T09:33:56.399Z,1007.76
2018-07-21T09:34:56.360Z,1007.82
2018-07-21T09:35:56.324Z,1007.79
2018-07-21T09:36:56.289Z,1007.74
2018-07-21T09:37:56.247Z,1007.75
2018-07-21T09:38:56.209Z,1007.76
2018-07-21T09:39:56.172Z,1007.73
2018-07-21T09:40:56.139Z,1007.75
2018-07-21T09:41:56.099Z,1007.76
2018-07-21T09:42:56.065Z,1007.73
2018-07-21T09:43:56.026Z,1007.73
2018-07-21T09:44:55.989Z,1007.73
2018-07-21T09:45:55.951Z,1007.74
2018-07-21T09:46:55.912Z,1007.73
2018-07-21T09:47:55.875Z,1007.71
2018-07-21T09:48:55.836Z,1007.75
2018-07-21T09:49:55.802Z,1007.75
2018-07-21T09:50:55.763Z,1007.78
2018-07-21T09:51:55.726Z,1007.77
2018-07-21T09:52:55.688Z,1007.76
2018-07-21T09:53:55.656Z,1007.74
2018-07-21T09:54:55.615Z,1007.82
2018-07-21T09:55:55.690Z,1007.83
2018-07-21T09:56:55.552Z,1007.85
2018-07-21T09:57:55.536Z,1007.82
2018-07-21T09:58:55.498Z,1007.82
2018-07-21T09:59:55.431Z,1007.77
2018-07-21T10:00:55.395Z,1007.78
2018-07-21T10:01:55.364Z,1007.80
2018-07-21T10:02:55.331Z,1007.79
2018-07-21T10:03:55.284Z,1007.77
2018-07-21T10:04:55.246Z,1007.77
2018-07-21T10:05:55.211Z,1007.81
2018-07-21T10:06:55.179Z,1007.85
2018-07-21T10:07:55.138Z,1007.85
2018-07-21T10:08:55.102Z,1007.88
2018-07-21T10:09:55.071Z,1007.89
2018-07-21T10:10:55.029Z,1007.92
2018-07-21T10:11:54.991Z,1007.94
2018-07-21T10:12:54.955Z,1007.97
2018-07-21T10:13:54.925Z,1007.95
2018-07-21T10:14:54.884Z,1007.91
2018-07-21T10:15:54.846Z,1007.90
2018-07-21T10:16:54.812Z,1007.93
2018-07-21T10:17:54.776Z,1007.91
2018-07-21T10:18:54.739Z,1007.82
2018-07-21T10:19:54.703Z,1007.86
2018-07-21T10:20:54.671Z,1007.84
2018-07-21T10:21:54.670Z,1007.83
2018-07-21T10:22:54.597Z,1007.87
2018-07-21T10:23:54.559Z,1007.85
2018-07-21T10:24:54.524Z,1007.85
2018-07-21T10:25:54.496Z,1007.86
2018-07-21T10:26:54.452Z,1007.85
2018-07-21T10:27:54.418Z,1007.86
2018-07-21T10:28:54.385Z,1007.86
2018-07-21T10:29:54.347Z,1007.82
2018-07-21T10:30:54.309Z,1007.83
2018-07-21T10:31:54.274Z,1007.84
2018-07-21T10:32:54.239Z,1007.83
2018-07-21T10:33:54.206Z,1007.80
2018-07-21T10:34:54.171Z,1007.79
2018-07-21T10:35:54.154Z,1007.79
2018-07-21T10:36:54.101Z,1007.80
2018-07-21T10:37:54.064Z,1007.83
2018-07-21T10:38:54.028Z,1007.85
2018-07-21T10:39:53.994Z,1007.86
2018-07-21T10:40:53.961Z,1007.88
2018-07-21T10:41:53.922Z,1007.87
2018-07-21T10:42:53.887Z,1007.81
2018-07-21T10:43:53.852Z,1007.87
2018-07-21T10:44:53.822Z,1007.80
2018-07-21T10:45:53.783Z,1007.82
2018-07-21T10:46:53.750Z,1007.84
2018-07-21T10:47:53.712Z,1007.85
2018-07-21T10:48:53.684Z,1007.85
2018-07-21T10:49:53.645Z,1007.81
2018-07-21T10:50:53.700Z,1007.83
2018-07-21T10:51:53.574Z,1007.83
2018-07-21T10:52:53.540Z,1007.86
2018-07-21T10:53:53.523Z,1007.87
2018-07-21T10:54:53.473Z,1007.88
2018-07-21T10:55:53.437Z,1007.90
2018-07-21T10:56:53.402Z,1007.86
2018-07-21T10:57:53.368Z,1007.85
2018-07-21T10:58:53.332Z,1007.86
2018-07-21T11:00:53.264Z,1007.84
2018-07-21T11:01:53.230Z,1007.85
2018-07-21T11:02:53.198Z,1007.83
2018-07-21T11:03:53.165Z,1007.83
2018-07-21T11:04:53.126Z,1007.80
2018-07-21T11:05:53.094Z,1007.84
2018-07-21T11:06:53.088Z,1007.84
2018-07-21T11:07:53.026Z,1007.80
2018-07-21T11:08:52.989Z,1007.76
2018-07-21T11:09:52.964Z,1007.82
2018-07-21T11:10:52.919Z,1007.82
2018-07-21T11:11:52.888Z,1007.79
2018-07-21T11:12:52.852Z,1007.80
2018-07-21T11:13:52.828Z,1007.83
2018-07-21T11:14:52.782Z,1007.85
2018-07-21T11:15:52.749Z,1007.88
2018-07-21T11:16:52.714Z,1007.84
2018-07-21T11:17:52.694Z,1007.83
2018-07-21T11:18:52.647Z,1007.82
2018-07-21T11:19:52.612Z,1007.82
2018-07-21T11:20:52.580Z,1007.76
2018-07-21T11:21:52.555Z,1007.78
2018-07-21T11:22:52.508Z,1007.74
2018-07-21T11:23:52.476Z,1007.75
2018-07-21T11:24:52.500Z,1007.74
2018-07-21T11:25:52.407Z,1007.76
2018-07-21T11:26:52.373Z,1007.80
2018-07-21T11:27:52.341Z,1007.81
2018-07-21T11:28:52.304Z,1007.82
2018-07-21T11:29:52.273Z,1007.84
2018-07-21T11:30:52.236Z,1007.79
2018-07-21T11:31:52.203Z,1007.78
2018-07-21T11:32:52.169Z,1007.82
2018-07-21T11:33:52.136Z,1007.86
2018-07-21T11:34:52.103Z,1007.82
2018-07-21T11:35:52.522Z,1007.81
2018-07-21T11:36:52.039Z,1007.80
2018-07-21T11:37:52.190Z,1007.82
2018-07-21T11:38:51.973Z,1007.82
2018-07-21T11:39:52.227Z,1007.82
2018-07-21T11:40:51.904Z,1007.86
2018-07-21T11:41:52.058Z,1007.86
2018-07-21T11:42:51.833Z,1007.85
2018-07-21T11:43:52.027Z,1007.83
2018-07-21T11:44:51.771Z,1007.80
2018-07-21T11:45:51.978Z,1007.81
2018-07-21T11:46:51.701Z,1007.82
2018-07-21T11:47:51.905Z,1007.82
2018-07-21T11:48:51.636Z,1007.79
2018-07-21T11:49:51.603Z,1007.79
2018-07-21T11:50:51.779Z,1007.76
2018-07-21T11:51:51.534Z,1007.79
2018-07-21T11:52:51.784Z,1007.80
2018-07-21T11:53:51.470Z,1007.83
2018-07-21T11:54:51.687Z,1007.85
2018-07-21T11:55:51.401Z,1007.81
2018-07-21T11:56:51.458Z,1007.82
2018-07-21T11:57:51.336Z,1007.80
2018-07-21T11:58:51.370Z,1007.82
2018-07-21T11:59:51.270Z,1007.85
2018-07-21T12:00:51.319Z,1007.83
2018-07-21T12:01:51.259Z,1007.85
2018-07-21T12:02:51.202Z,1007.87
2018-07-21T12:03:51.138Z,1007.86
2018-07-21T12:04:51.347Z,1007.83
2018-07-21T12:05:51.069Z,1007.85